LiveATC.Net - Listen to live air traffic control over the Internet! Contact LiveATC.net for advertising information


ICAO: KGAI  IATA: GAI   Airport: Montgomery County Airpark
City: Gaithersburg   State/Province: Maryland
Country: United States   Continent: North America
KGAI METAR Weather: KGAI 200115Z 10003KT 10SM FEW027 OVC085 17/14 A3033 RMK AO1
KGAI Flight Activity (FlightAware)
KGAI Airport Info   (AirNav) (iFlightPlanner)
KGAI CTAF/UNICOM
Feed Status: UP   Listeners: 2
Listen right in your browser - requires Flash (in browser, requires Flash)
Click here to listen with your own player (launches your MP3 player)
KGAI CTAF/UNICOM Audio Archives
FacilityFrequency
Gaithersburg CTAF123.075

Feed sponsored by:

NOTICE

Unauthorized use prohibited. See LiveATC.net Terms of Service


Find LiveATC Audio Streams


Airport/ARTCC Code

Frequency
(e.g., 124.400, 128.75)
Site-wide search

Browse LiveATC Feeds
LiveATC Coverage Map
Top 50 LiveATC Feeds
Bad Weather Areas

LiveATC FAQ
Offer a LiveATC Feed
Contact LiveATC.net
Press Inquiries

LiveATC on iPhone
LiveATC on Android

LiveATC Mobile
(Mobile browser)

ATC Audio Archives
Interesting Recordings

LiveATC Forums


Home Page
About LiveATC.net
Make a Donation
LiveATC Bookstore

Terms of Use
Privacy Policy

ATC/Radar Sites
U.S. ARTCC Freqs
Canadian Air Freqs

AIRMETs/SIGMETs

FAA Airport Status
Nat'l Airspace Status
Arrival Demand Charts


Server Software By:
Icecast.org
Liquidsoap

Please make a donation to help us keep growing!